sensor_id;sensor_type;location;lat;lon;timestamp;temperature;humidity
48752;DHT22;34544;48.836;9.174;2023-08-30T00:00:39;13.50;99.90
48752;DHT22;34544;48.836;9.174;2023-08-30T00:03:04;13.60;99.90
48752;DHT22;34544;48.836;9.174;2023-08-30T00:05:31;13.50;99.90
48752;DHT22;34544;48.836;9.174;2023-08-30T00:07:57;13.60;99.90
48752;DHT22;34544;48.836;9.174;2023-08-30T00:10:23;13.60;99.90
48752;DHT22;34544;48.836;9.174;2023-08-30T00:12:49;13.60;99.90
48752;DHT22;34544;48.836;9.174;2023-08-30T00:15:14;13.60;99.90
48752;DHT22;34544;48.836;9.174;2023-08-30T00:17:40;13.60;99.90
48752;DHT22;34544;48.836;9.174;2023-08-30T00:20:06;13.60;99.90
48752;DHT22;34544;48.836;9.174;2023-08-30T00:22:33;13.60;99.90
48752;DHT22;34544;48.836;9.174;2023-08-30T00:24:59;13.60;99.90
48752;DHT22;34544;48.836;9.174;2023-08-30T00:27:24;13.60;99.90
48752;DHT22;34544;48.836;9.174;2023-08-30T00:29:50;13.60;99.90
48752;DHT22;34544;48.836;9.174;2023-08-30T00:32:16;13.60;99.90
48752;DHT22;34544;48.836;9.174;2023-08-30T00:34:41;13.60;99.90
48752;DHT22;34544;48.836;9.174;2023-08-30T00:37:07;13.60;99.90
48752;DHT22;34544;48.836;9.174;2023-08-30T00:39:37;13.60;99.90
48752;DHT22;34544;48.836;9.174;2023-08-30T00:42:05;13.60;99.90
48752;DHT22;34544;48.836;9.174;2023-08-30T00:44:34;13.60;99.90
48752;DHT22;34544;48.836;9.174;2023-08-30T00:47:00;13.60;99.90
48752;DHT22;34544;48.836;9.174;2023-08-30T00:49:28;13.60;99.90
48752;DHT22;34544;48.836;9.174;2023-08-30T00:51:54;13.60;99.90
48752;DHT22;34544;48.836;9.174;2023-08-30T00:54:20;13.60;99.90
48752;DHT22;34544;48.836;9.174;2023-08-30T00:56:47;13.60;99.90
48752;DHT22;34544;48.836;9.174;2023-08-30T00:59:13;13.60;99.90
48752;DHT22;34544;48.836;9.174;2023-08-30T01:01:40;13.60;99.90
48752;DHT22;34544;48.836;9.174;2023-08-30T01:04:06;13.60;99.90
48752;DHT22;34544;48.836;9.174;2023-08-30T01:06:33;13.70;99.90
48752;DHT22;34544;48.836;9.174;2023-08-30T01:09:01;13.60;99.90
48752;DHT22;34544;48.836;9.174;2023-08-30T01:11:43;13.60;99.90
48752;DHT22;34544;48.836;9.174;2023-08-30T01:14:15;13.60;99.90
48752;DHT22;34544;48.836;9.174;2023-08-30T01:16:42;13.60;99.90
48752;DHT22;34544;48.836;9.174;2023-08-30T01:19:34;13.60;99.90
48752;DHT22;34544;48.836;9.174;2023-08-30T01:25:00;13.50;99.90
48752;DHT22;34544;48.836;9.174;2023-08-30T01:27:31;13.50;99.90
48752;DHT22;34544;48.836;9.174;2023-08-30T01:30:01;13.40;99.90
48752;DHT22;34544;48.836;9.174;2023-08-30T01:32:29;13.30;99.90
48752;DHT22;34544;48.836;9.174;2023-08-30T01:34:58;13.30;99.90
48752;DHT22;34544;48.836;9.174;2023-08-30T01:37:24;13.20;99.90
48752;DHT22;34544;48.836;9.174;2023-08-30T01:39:51;13.20;99.90
48752;DHT22;34544;48.836;9.174;2023-08-30T01:42:17;13.10;99.90
48752;DHT22;34544;48.836;9.174;2023-08-30T01:44:48;13.00;99.90
48752;DHT22;34544;48.836;9.174;2023-08-30T01:47:14;13.00;99.90
48752;DHT22;34544;48.836;9.174;2023-08-30T01:49:43;13.00;99.90
48752;DHT22;34544;48.836;9.174;2023-08-30T01:52:10;12.90;99.90
48752;DHT22;34544;48.836;9.174;2023-08-30T01:54:37;12.90;99.90
48752;DHT22;34544;48.836;9.174;2023-08-30T01:57:05;12.90;99.90
48752;DHT22;34544;48.836;9.174;2023-08-30T01:59:31;12.80;99.90
48752;DHT22;34544;48.836;9.174;2023-08-30T02:01:56;12.70;99.90
48752;DHT22;34544;48.836;9.174;2023-08-30T02:04:22;12.70;99.90
48752;DHT22;34544;48.836;9.174;2023-08-30T02:07:20;12.70;99.90
48752;DHT22;34544;48.836;9.174;2023-08-30T02:09:56;12.60;99.90
48752;DHT22;34544;48.836;9.174;2023-08-30T02:12:23;12.60;99.90
48752;DHT22;34544;48.836;9.174;2023-08-30T02:14:51;12.60;99.90
48752;DHT22;34544;48.836;9.174;2023-08-30T02:17:18;12.60;99.90
48752;DHT22;34544;48.836;9.174;2023-08-30T02:19:45;12.60;99.90
48752;DHT22;34544;48.836;9.174;2023-08-30T02:22:11;12.60;99.90
48752;DHT22;34544;48.836;9.174;2023-08-30T02:24:37;12.50;99.90
48752;DHT22;34544;48.836;9.174;2023-08-30T02:27:03;12.50;99.90
48752;DHT22;34544;48.836;9.174;2023-08-30T02:29:29;12.50;99.90
48752;DHT22;34544;48.836;9.174;2023-08-30T02:31:55;12.50;99.90
48752;DHT22;34544;48.836;9.174;2023-08-30T02:34:21;12.50;99.90
48752;DHT22;34544;48.836;9.174;2023-08-30T02:36:47;12.40;99.90
48752;DHT22;34544;48.836;9.174;2023-08-30T02:39:14;12.40;99.90
48752;DHT22;34544;48.836;9.174;2023-08-30T02:41:39;12.40;99.90
48752;DHT22;34544;48.836;9.174;2023-08-30T02:44:13;12.40;99.90
48752;DHT22;34544;48.836;9.174;2023-08-30T02:46:41;12.30;99.90
48752;DHT22;34544;48.836;9.174;2023-08-30T02:49:07;12.30;99.90
48752;DHT22;34544;48.836;9.174;2023-08-30T02:51:34;12.30;99.90
48752;DHT22;34544;48.836;9.174;2023-08-30T02:54:00;12.20;99.90
48752;DHT22;34544;48.836;9.174;2023-08-30T02:56:26;12.20;99.90
48752;DHT22;34544;48.836;9.174;2023-08-30T02:58:52;12.20;99.90
48752;DHT22;34544;48.836;9.174;2023-08-30T03:01:18;12.20;99.90
48752;DHT22;34544;48.836;9.174;2023-08-30T03:03:45;12.20;99.90
48752;DHT22;34544;48.836;9.174;2023-08-30T03:06:11;12.20;99.90
48752;DHT22;34544;48.836;9.174;2023-08-30T03:08:38;12.20;99.90
48752;DHT22;34544;48.836;9.174;2023-08-30T03:11:08;12.20;99.90
48752;DHT22;34544;48.836;9.174;2023-08-30T03:13:35;12.20;99.90
48752;DHT22;34544;48.836;9.174;2023-08-30T03:16:00;12.20;99.90
48752;DHT22;34544;48.836;9.174;2023-08-30T03:18:26;12.20;99.90
48752;DHT22;34544;48.836;9.174;2023-08-30T03:21:00;12.30;99.90
48752;DHT22;34544;48.836;9.174;2023-08-30T03:23:27;12.30;99.90
48752;DHT22;34544;48.836;9.174;2023-08-30T03:25:53;12.40;99.90
48752;DHT22;34544;48.836;9.174;2023-08-30T03:28:21;12.50;99.90
48752;DHT22;34544;48.836;9.174;2023-08-30T03:30:47;12.50;99.90
48752;DHT22;34544;48.836;9.174;2023-08-30T03:33:12;12.50;99.90
48752;DHT22;34544;48.836;9.174;2023-08-30T03:35:38;12.50;99.90
48752;DHT22;34544;48.836;9.174;2023-08-30T03:38:05;12.60;99.90
48752;DHT22;34544;48.836;9.174;2023-08-30T03:40:30;12.60;99.90
48752;DHT22;34544;48.836;9.174;2023-08-30T03:42:56;12.70;99.90
48752;DHT22;34544;48.836;9.174;2023-08-30T03:45:22;12.70;99.90
48752;DHT22;34544;48.836;9.174;2023-08-30T03:47:48;12.80;99.90
48752;DHT22;34544;48.836;9.174;2023-08-30T03:50:14;12.80;99.90
48752;DHT22;34544;48.836;9.174;2023-08-30T03:52:39;12.80;99.90
48752;DHT22;34544;48.836;9.174;2023-08-30T03:55:06;12.80;99.90
48752;DHT22;34544;48.836;9.174;2023-08-30T03:57:31;12.90;99.90
48752;DHT22;34544;48.836;9.174;2023-08-30T03:59:57;12.90;99.90
48752;DHT22;34544;48.836;9.174;2023-08-30T04:02:23;12.90;99.90
48752;DHT22;34544;48.836;9.174;2023-08-30T04:04:48;12.90;99.90
48752;DHT22;34544;48.836;9.174;2023-08-30T04:07:15;13.00;99.90
48752;DHT22;34544;48.836;9.174;2023-08-30T04:09:41;13.00;99.90
48752;DHT22;34544;48.836;9.174;2023-08-30T04:12:07;13.00;99.90
48752;DHT22;34544;48.836;9.174;2023-08-30T04:14:33;13.00;99.90
48752;DHT22;34544;48.836;9.174;2023-08-30T04:16:58;13.00;99.90
48752;DHT22;34544;48.836;9.174;2023-08-30T04:19:24;13.10;99.90
48752;DHT22;34544;48.836;9.174;2023-08-30T04:21:49;13.10;99.90
48752;DHT22;34544;48.836;9.174;2023-08-30T04:24:15;13.10;99.90
48752;DHT22;34544;48.836;9.174;2023-08-30T04:26:41;13.10;99.90
48752;DHT22;34544;48.836;9.174;2023-08-30T04:29:07;13.00;99.90
48752;DHT22;34544;48.836;9.174;2023-08-30T04:31:33;13.10;99.90
48752;DHT22;34544;48.836;9.174;2023-08-30T04:34:00;13.10;99.90
48752;DHT22;34544;48.836;9.174;2023-08-30T04:36:26;13.10;99.90
48752;DHT22;34544;48.836;9.174;2023-08-30T04:38:52;13.10;99.90
48752;DHT22;34544;48.836;9.174;2023-08-30T04:41:18;13.10;99.90
48752;DHT22;34544;48.836;9.174;2023-08-30T04:43:44;13.10;99.90
48752;DHT22;34544;48.836;9.174;2023-08-30T04:46:10;13.10;99.90
48752;DHT22;34544;48.836;9.174;2023-08-30T04:48:36;13.20;99.90
48752;DHT22;34544;48.836;9.174;2023-08-30T04:51:02;13.10;99.90
48752;DHT22;34544;48.836;9.174;2023-08-30T04:53:28;13.20;99.90
48752;DHT22;34544;48.836;9.174;2023-08-30T04:55:55;13.20;99.90
48752;DHT22;34544;48.836;9.174;2023-08-30T04:58:21;13.30;99.90
48752;DHT22;34544;48.836;9.174;2023-08-30T05:00:47;13.30;99.90
48752;DHT22;34544;48.836;9.174;2023-08-30T05:03:12;13.30;99.90
48752;DHT22;34544;48.836;9.174;2023-08-30T05:05:38;13.40;99.90
48752;DHT22;34544;48.836;9.174;2023-08-30T05:08:04;13.40;99.90
48752;DHT22;34544;48.836;9.174;2023-08-30T05:10:32;13.40;99.90
48752;DHT22;34544;48.836;9.174;2023-08-30T05:12:58;13.40;99.90
48752;DHT22;34544;48.836;9.174;2023-08-30T05:15:23;13.50;99.90
48752;DHT22;34544;48.836;9.174;2023-08-30T05:17:50;13.50;99.90
48752;DHT22;34544;48.836;9.174;2023-08-30T05:20:15;13.50;99.90
48752;DHT22;34544;48.836;9.174;2023-08-30T05:22:41;13.50;99.90
48752;DHT22;34544;48.836;9.174;2023-08-30T05:25:07;13.60;99.90
48752;DHT22;34544;48.836;9.174;2023-08-30T05:27:33;13.60;99.90
48752;DHT22;34544;48.836;9.174;2023-08-30T05:29:59;13.60;99.90
48752;DHT22;34544;48.836;9.174;2023-08-30T05:32:25;13.70;99.90
48752;DHT22;34544;48.836;9.174;2023-08-30T05:35:20;13.70;99.90
48752;DHT22;34544;48.836;9.174;2023-08-30T05:38:06;13.70;99.90
48752;DHT22;34544;48.836;9.174;2023-08-30T05:40:51;13.80;99.90
48752;DHT22;34544;48.836;9.174;2023-08-30T05:43:17;13.80;99.90
48752;DHT22;34544;48.836;9.174;2023-08-30T05:45:43;13.90;99.90
48752;DHT22;34544;48.836;9.174;2023-08-30T05:48:09;13.90;99.90
48752;DHT22;34544;48.836;9.174;2023-08-30T05:50:34;14.00;99.90
48752;DHT22;34544;48.836;9.174;2023-08-30T05:53:01;14.00;99.90
48752;DHT22;34544;48.836;9.174;2023-08-30T05:55:26;14.10;99.90
48752;DHT22;34544;48.836;9.174;2023-08-30T05:57:52;14.10;99.90
48752;DHT22;34544;48.836;9.174;2023-08-30T06:00:18;14.10;99.90
48752;DHT22;34544;48.836;9.174;2023-08-30T06:02:45;14.20;99.90
48752;DHT22;34544;48.836;9.174;2023-08-30T06:05:11;14.20;99.90
48752;DHT22;34544;48.836;9.174;2023-08-30T06:07:37;14.30;99.90
48752;DHT22;34544;48.836;9.174;2023-08-30T06:10:03;14.40;99.90
48752;DHT22;34544;48.836;9.174;2023-08-30T06:12:30;14.40;99.90
48752;DHT22;34544;48.836;9.174;2023-08-30T06:14:56;14.40;99.90
48752;DHT22;34544;48.836;9.174;2023-08-30T06:17:22;14.40;99.90
48752;DHT22;34544;48.836;9.174;2023-08-30T06:19:47;14.50;99.90
48752;DHT22;34544;48.836;9.174;2023-08-30T06:22:13;14.50;99.90
48752;DHT22;34544;48.836;9.174;2023-08-30T06:24:39;14.50;99.90
48752;DHT22;34544;48.836;9.174;2023-08-30T06:27:05;14.60;99.90
48752;DHT22;34544;48.836;9.174;2023-08-30T06:29:31;14.70;99.90
48752;DHT22;34544;48.836;9.174;2023-08-30T06:31:57;14.70;99.90
48752;DHT22;34544;48.836;9.174;2023-08-30T06:34:23;14.80;99.90
48752;DHT22;34544;48.836;9.174;2023-08-30T06:36:49;14.80;99.90
48752;DHT22;34544;48.836;9.174;2023-08-30T06:39:14;14.80;99.90
48752;DHT22;34544;48.836;9.174;2023-08-30T06:41:40;14.90;99.90
48752;DHT22;34544;48.836;9.174;2023-08-30T06:44:06;14.90;99.90
48752;DHT22;34544;48.836;9.174;2023-08-30T06:46:31;15.00;99.90
48752;DHT22;34544;48.836;9.174;2023-08-30T06:48:57;14.90;99.90
48752;DHT22;34544;48.836;9.174;2023-08-30T06:51:23;15.10;99.90
48752;DHT22;34544;48.836;9.174;2023-08-30T06:53:50;15.10;99.90
48752;DHT22;34544;48.836;9.174;2023-08-30T06:56:15;15.20;99.90
48752;DHT22;34544;48.836;9.174;2023-08-30T06:58:41;15.20;99.90
48752;DHT22;34544;48.836;9.174;2023-08-30T07:01:07;15.20;99.90
48752;DHT22;34544;48.836;9.174;2023-08-30T07:03:33;15.20;99.90
48752;DHT22;34544;48.836;9.174;2023-08-30T07:05:58;15.20;99.90
48752;DHT22;34544;48.836;9.174;2023-08-30T07:08:24;15.20;99.90
48752;DHT22;34544;48.836;9.174;2023-08-30T07:10:51;15.20;99.90
48752;DHT22;34544;48.836;9.174;2023-08-30T07:13:17;15.20;99.90
48752;DHT22;34544;48.836;9.174;2023-08-30T07:15:43;15.20;99.90
48752;DHT22;34544;48.836;9.174;2023-08-30T07:18:09;15.30;99.90
48752;DHT22;34544;48.836;9.174;2023-08-30T07:20:35;15.30;99.90
48752;DHT22;34544;48.836;9.174;2023-08-30T07:23:04;15.40;99.90
48752;DHT22;34544;48.836;9.174;2023-08-30T07:25:30;15.40;99.90
48752;DHT22;34544;48.836;9.174;2023-08-30T07:27:59;15.40;99.90
48752;DHT22;34544;48.836;9.174;2023-08-30T07:30:25;15.30;99.90
48752;DHT22;34544;48.836;9.174;2023-08-30T07:32:50;15.40;99.90
48752;DHT22;34544;48.836;9.174;2023-08-30T07:35:16;15.40;99.90
48752;DHT22;34544;48.836;9.174;2023-08-30T07:37:42;15.40;99.90
48752;DHT22;34544;48.836;9.174;2023-08-30T07:40:08;15.50;99.90
48752;DHT22;34544;48.836;9.174;2023-08-30T07:42:34;15.50;99.90
48752;DHT22;34544;48.836;9.174;2023-08-30T07:44:59;15.50;99.90
48752;DHT22;34544;48.836;9.174;2023-08-30T07:47:25;15.60;99.90
48752;DHT22;34544;48.836;9.174;2023-08-30T07:49:51;15.60;99.90
48752;DHT22;34544;48.836;9.174;2023-08-30T07:52:16;15.60;99.90
48752;DHT22;34544;48.836;9.174;2023-08-30T07:54:42;15.60;99.90
48752;DHT22;34544;48.836;9.174;2023-08-30T07:57:08;15.60;99.90
48752;DHT22;34544;48.836;9.174;2023-08-30T07:59:34;15.60;99.90
48752;DHT22;34544;48.836;9.174;2023-08-30T08:02:01;15.60;99.90
48752;DHT22;34544;48.836;9.174;2023-08-30T08:04:26;15.60;99.90
48752;DHT22;34544;48.836;9.174;2023-08-30T08:06:52;15.70;99.90
48752;DHT22;34544;48.836;9.174;2023-08-30T08:09:18;15.80;99.90
48752;DHT22;34544;48.836;9.174;2023-08-30T08:11:43;15.80;99.90
48752;DHT22;34544;48.836;9.174;2023-08-30T08:14:10;15.90;99.90
48752;DHT22;34544;48.836;9.174;2023-08-30T08:16:36;15.90;99.90
48752;DHT22;34544;48.836;9.174;2023-08-30T08:19:02;16.00;99.90
48752;DHT22;34544;48.836;9.174;2023-08-30T08:21:28;16.00;99.90
48752;DHT22;34544;48.836;9.174;2023-08-30T08:23:54;16.10;99.90
48752;DHT22;34544;48.836;9.174;2023-08-30T08:26:20;16.10;99.90
48752;DHT22;34544;48.836;9.174;2023-08-30T08:28:45;16.20;99.90
48752;DHT22;34544;48.836;9.174;2023-08-30T08:31:11;16.20;99.90
48752;DHT22;34544;48.836;9.174;2023-08-30T08:33:37;16.30;99.90
48752;DHT22;34544;48.836;9.174;2023-08-30T08:36:03;16.40;99.90
48752;DHT22;34544;48.836;9.174;2023-08-30T08:38:28;16.40;99.90
48752;DHT22;34544;48.836;9.174;2023-08-30T08:41:06;16.40;99.90
48752;DHT22;34544;48.836;9.174;2023-08-30T08:43:35;16.50;99.90
48752;DHT22;34544;48.836;9.174;2023-08-30T08:46:03;16.60;99.90
48752;DHT22;34544;48.836;9.174;2023-08-30T08:48:35;16.70;99.90
48752;DHT22;34544;48.836;9.174;2023-08-30T08:51:04;16.80;99.90
48752;DHT22;34544;48.836;9.174;2023-08-30T08:53:30;17.00;99.90
48752;DHT22;34544;48.836;9.174;2023-08-30T08:55:58;17.20;99.90
48752;DHT22;34544;48.836;9.174;2023-08-30T08:58:24;17.60;99.90
48752;DHT22;34544;48.836;9.174;2023-08-30T09:00:50;18.10;99.90
48752;DHT22;34544;48.836;9.174;2023-08-30T09:03:18;18.30;99.90
48752;DHT22;34544;48.836;9.174;2023-08-30T09:05:44;18.60;99.90
48752;DHT22;34544;48.836;9.174;2023-08-30T09:08:12;18.50;99.90
48752;DHT22;34544;48.836;9.174;2023-08-30T09:10:38;18.60;99.90
48752;DHT22;34544;48.836;9.174;2023-08-30T09:15:32;19.00;99.90
48752;DHT22;34544;48.836;9.174;2023-08-30T09:17:58;19.40;99.90
48752;DHT22;34544;48.836;9.174;2023-08-30T09:20:23;19.50;99.90
48752;DHT22;34544;48.836;9.174;2023-08-30T09:22:49;19.70;99.90
48752;DHT22;34544;48.836;9.174;2023-08-30T09:27:57;19.90;99.90
48752;DHT22;34544;48.836;9.174;2023-08-30T09:30:24;20.00;99.90
48752;DHT22;34544;48.836;9.174;2023-08-30T09:32:51;20.20;99.90
48752;DHT22;34544;48.836;9.174;2023-08-30T09:35:16;20.40;99.90
48752;DHT22;34544;48.836;9.174;2023-08-30T09:37:45;20.60;99.90
48752;DHT22;34544;48.836;9.174;2023-08-30T09:40:11;20.70;99.90
48752;DHT22;34544;48.836;9.174;2023-08-30T09:42:41;20.90;99.90
48752;DHT22;34544;48.836;9.174;2023-08-30T09:45:23;21.00;99.90
48752;DHT22;34544;48.836;9.174;2023-08-30T09:47:49;21.10;99.90
48752;DHT22;34544;48.836;9.174;2023-08-30T09:50:19;21.20;99.90
48752;DHT22;34544;48.836;9.174;2023-08-30T09:52:46;21.30;99.90
48752;DHT22;34544;48.836;9.174;2023-08-30T09:55:13;21.40;99.90
48752;DHT22;34544;48.836;9.174;2023-08-30T09:57:40;21.40;99.90
48752;DHT22;34544;48.836;9.174;2023-08-30T10:00:07;21.70;99.90
48752;DHT22;34544;48.836;9.174;2023-08-30T10:02:34;21.90;99.90
48752;DHT22;34544;48.836;9.174;2023-08-30T10:05:00;22.30;99.90
48752;DHT22;34544;48.836;9.174;2023-08-30T10:07:28;22.40;99.90
48752;DHT22;34544;48.836;9.174;2023-08-30T10:09:54;22.40;99.90
48752;DHT22;34544;48.836;9.174;2023-08-30T10:12:20;22.30;99.90
48752;DHT22;34544;48.836;9.174;2023-08-30T10:14:49;22.40;99.90
48752;DHT22;34544;48.836;9.174;2023-08-30T10:17:18;22.80;99.90
48752;DHT22;34544;48.836;9.174;2023-08-30T10:19:45;23.50;99.90
48752;DHT22;34544;48.836;9.174;2023-08-30T10:22:12;23.90;99.90
48752;DHT22;34544;48.836;9.174;2023-08-30T10:27:13;24.60;99.90
48752;DHT22;34544;48.836;9.174;2023-08-30T10:29:41;24.90;99.90
48752;DHT22;34544;48.836;9.174;2023-08-30T10:32:07;24.90;99.90
48752;DHT22;34544;48.836;9.174;2023-08-30T10:34:36;24.60;99.90
48752;DHT22;34544;48.836;9.174;2023-08-30T10:37:05;24.50;99.90
48752;DHT22;34544;48.836;9.174;2023-08-30T10:39:39;24.30;99.90
48752;DHT22;34544;48.836;9.174;2023-08-30T10:42:09;24.10;99.90
48752;DHT22;34544;48.836;9.174;2023-08-30T10:44:47;23.70;99.90
48752;DHT22;34544;48.836;9.174;2023-08-30T10:47:28;23.50;99.90
48752;DHT22;34544;48.836;9.174;2023-08-30T10:49:59;23.30;99.90
48752;DHT22;34544;48.836;9.174;2023-08-30T10:52:29;23.30;99.90
48752;DHT22;34544;48.836;9.174;2023-08-30T10:55:13;23.40;99.90
48752;DHT22;34544;48.836;9.174;2023-08-30T10:57:44;23.50;99.90
48752;DHT22;34544;48.836;9.174;2023-08-30T11:00:20;23.80;99.90
48752;DHT22;34544;48.836;9.174;2023-08-30T11:02:48;24.20;99.90
48752;DHT22;34544;48.836;9.174;2023-08-30T11:05:20;24.70;99.90
48752;DHT22;34544;48.836;9.174;2023-08-30T11:07:47;25.00;99.90
48752;DHT22;34544;48.836;9.174;2023-08-30T11:10:14;25.20;99.90
48752;DHT22;34544;48.836;9.174;2023-08-30T11:12:41;25.30;99.90
48752;DHT22;34544;48.836;9.174;2023-08-30T11:15:09;25.40;99.90
48752;DHT22;34544;48.836;9.174;2023-08-30T11:17:35;25.10;99.90
48752;DHT22;34544;48.836;9.174;2023-08-30T11:20:08;24.90;99.90
48752;DHT22;34544;48.836;9.174;2023-08-30T11:22:42;24.60;99.90
48752;DHT22;34544;48.836;9.174;2023-08-30T11:25:08;24.40;99.90
48752;DHT22;34544;48.836;9.174;2023-08-30T11:27:34;24.10;99.90
48752;DHT22;34544;48.836;9.174;2023-08-30T11:30:01;23.90;99.90
48752;DHT22;34544;48.836;9.174;2023-08-30T11:32:35;23.60;99.90
48752;DHT22;34544;48.836;9.174;2023-08-30T11:35:00;23.30;99.90
48752;DHT22;34544;48.836;9.174;2023-08-30T11:37:29;22.90;99.90
48752;DHT22;34544;48.836;9.174;2023-08-30T11:39:56;22.50;99.90
48752;DHT22;34544;48.836;9.174;2023-08-30T11:42:22;22.20;99.90
48752;DHT22;34544;48.836;9.174;2023-08-30T11:44:49;22.00;99.90
48752;DHT22;34544;48.836;9.174;2023-08-30T11:47:19;21.50;99.90
48752;DHT22;34544;48.836;9.174;2023-08-30T11:49:48;21.20;99.90
48752;DHT22;34544;48.836;9.174;2023-08-30T11:52:15;20.80;99.90
48752;DHT22;34544;48.836;9.174;2023-08-30T11:54:41;20.40;99.90
48752;DHT22;34544;48.836;9.174;2023-08-30T11:57:08;19.90;99.90
48752;DHT22;34544;48.836;9.174;2023-08-30T11:59:35;19.60;99.90
48752;DHT22;34544;48.836;9.174;2023-08-30T12:02:02;19.30;99.90
48752;DHT22;34544;48.836;9.174;2023-08-30T12:04:30;19.10;99.90
48752;DHT22;34544;48.836;9.174;2023-08-30T12:06:56;19.10;99.90
48752;DHT22;34544;48.836;9.174;2023-08-30T12:09:22;18.80;99.90
48752;DHT22;34544;48.836;9.174;2023-08-30T12:11:51;18.50;99.90
48752;DHT22;34544;48.836;9.174;2023-08-30T12:14:17;18.40;99.90
48752;DHT22;34544;48.836;9.174;2023-08-30T12:16:43;18.40;99.90
48752;DHT22;34544;48.836;9.174;2023-08-30T12:19:10;18.30;99.90
48752;DHT22;34544;48.836;9.174;2023-08-30T12:21:44;18.10;99.90
48752;DHT22;34544;48.836;9.174;2023-08-30T12:26:36;18.00;99.90
48752;DHT22;34544;48.836;9.174;2023-08-30T12:29:07;18.10;99.90
48752;DHT22;34544;48.836;9.174;2023-08-30T12:31:33;18.00;99.90
48752;DHT22;34544;48.836;9.174;2023-08-30T12:33:59;18.00;99.90
48752;DHT22;34544;48.836;9.174;2023-08-30T12:36:24;18.00;99.90
48752;DHT22;34544;48.836;9.174;2023-08-30T12:38:50;18.00;99.90
48752;DHT22;34544;48.836;9.174;2023-08-30T12:41:16;18.00;99.90
48752;DHT22;34544;48.836;9.174;2023-08-30T12:43:42;18.10;99.90
48752;DHT22;34544;48.836;9.174;2023-08-30T12:46:07;18.30;99.90
48752;DHT22;34544;48.836;9.174;2023-08-30T12:48:33;18.40;99.90
48752;DHT22;34544;48.836;9.174;2023-08-30T12:50:59;18.50;99.90
48752;DHT22;34544;48.836;9.174;2023-08-30T12:53:25;18.60;99.90
48752;DHT22;34544;48.836;9.174;2023-08-30T12:55:50;18.70;99.90
48752;DHT22;34544;48.836;9.174;2023-08-30T12:58:16;18.80;99.90
48752;DHT22;34544;48.836;9.174;2023-08-30T13:00:42;19.00;99.90
48752;DHT22;34544;48.836;9.174;2023-08-30T13:03:08;19.10;99.90
48752;DHT22;34544;48.836;9.174;2023-08-30T13:05:34;19.20;99.90
48752;DHT22;34544;48.836;9.174;2023-08-30T13:08:02;19.20;99.90
48752;DHT22;34544;48.836;9.174;2023-08-30T13:10:28;19.30;99.90
48752;DHT22;34544;48.836;9.174;2023-08-30T13:12:54;19.40;99.90
48752;DHT22;34544;48.836;9.174;2023-08-30T13:15:20;19.50;99.90
48752;DHT22;34544;48.836;9.174;2023-08-30T13:17:46;19.60;99.90
48752;DHT22;34544;48.836;9.174;2023-08-30T13:20:12;19.80;99.90
48752;DHT22;34544;48.836;9.174;2023-08-30T13:22:38;20.10;99.90
48752;DHT22;34544;48.836;9.174;2023-08-30T13:25:04;20.30;99.90
48752;DHT22;34544;48.836;9.174;2023-08-30T13:27:30;20.60;99.90
48752;DHT22;34544;48.836;9.174;2023-08-30T13:29:56;21.10;99.90
48752;DHT22;34544;48.836;9.174;2023-08-30T13:32:22;21.70;99.90
48752;DHT22;34544;48.836;9.174;2023-08-30T13:34:50;22.20;99.90
48752;DHT22;34544;48.836;9.174;2023-08-30T13:37:15;22.90;99.90
48752;DHT22;34544;48.836;9.174;2023-08-30T13:39:41;23.60;99.90
48752;DHT22;34544;48.836;9.174;2023-08-30T13:42:07;24.30;99.90
48752;DHT22;34544;48.836;9.174;2023-08-30T13:44:33;25.10;99.90
48752;DHT22;34544;48.836;9.174;2023-08-30T13:47:01;25.40;99.90
48752;DHT22;34544;48.836;9.174;2023-08-30T13:49:27;25.90;99.90
48752;DHT22;34544;48.836;9.174;2023-08-30T13:51:53;26.10;99.90
48752;DHT22;34544;48.836;9.174;2023-08-30T13:54:19;26.40;99.90
48752;DHT22;34544;48.836;9.174;2023-08-30T13:56:45;26.40;99.90
48752;DHT22;34544;48.836;9.174;2023-08-30T13:59:10;26.30;99.90
48752;DHT22;34544;48.836;9.174;2023-08-30T14:01:36;26.30;99.90
48752;DHT22;34544;48.836;9.174;2023-08-30T14:04:02;26.30;99.90
48752;DHT22;34544;48.836;9.174;2023-08-30T14:06:31;26.30;99.90
48752;DHT22;34544;48.836;9.174;2023-08-30T14:08:57;26.30;99.90
48752;DHT22;34544;48.836;9.174;2023-08-30T14:11:23;25.90;99.90
48752;DHT22;34544;48.836;9.174;2023-08-30T14:13:49;25.20;99.90
48752;DHT22;34544;48.836;9.174;2023-08-30T14:16:14;24.50;99.90
48752;DHT22;34544;48.836;9.174;2023-08-30T14:18:40;24.00;99.90
48752;DHT22;34544;48.836;9.174;2023-08-30T14:21:06;23.60;99.90
48752;DHT22;34544;48.836;9.174;2023-08-30T14:23:31;23.20;99.90
48752;DHT22;34544;48.836;9.174;2023-08-30T14:26:02;22.80;99.90
48752;DHT22;34544;48.836;9.174;2023-08-30T14:28:35;22.30;99.90
48752;DHT22;34544;48.836;9.174;2023-08-30T14:31:01;21.90;99.90
48752;DHT22;34544;48.836;9.174;2023-08-30T14:33:27;21.60;99.90
48752;DHT22;34544;48.836;9.174;2023-08-30T14:35:53;21.40;99.90
48752;DHT22;34544;48.836;9.174;2023-08-30T14:38:19;21.30;99.90
48752;DHT22;34544;48.836;9.174;2023-08-30T14:40:58;21.10;99.90
48752;DHT22;34544;48.836;9.174;2023-08-30T14:43:24;20.90;99.90
48752;DHT22;34544;48.836;9.174;2023-08-30T14:45:50;20.80;99.90
48752;DHT22;34544;48.836;9.174;2023-08-30T14:48:15;20.60;99.90
48752;DHT22;34544;48.836;9.174;2023-08-30T14:50:41;20.40;99.90
48752;DHT22;34544;48.836;9.174;2023-08-30T14:53:07;20.30;99.90
48752;DHT22;34544;48.836;9.174;2023-08-30T14:55:33;20.10;99.90
48752;DHT22;34544;48.836;9.174;2023-08-30T14:57:58;20.00;99.90
48752;DHT22;34544;48.836;9.174;2023-08-30T15:00:24;19.80;99.90
48752;DHT22;34544;48.836;9.174;2023-08-30T15:02:50;19.60;99.90
48752;DHT22;34544;48.836;9.174;2023-08-30T15:05:16;19.60;99.90
48752;DHT22;34544;48.836;9.174;2023-08-30T15:07:41;19.70;99.90
48752;DHT22;34544;48.836;9.174;2023-08-30T15:10:07;19.80;99.90
48752;DHT22;34544;48.836;9.174;2023-08-30T15:12:33;20.00;99.90
48752;DHT22;34544;48.836;9.174;2023-08-30T15:14:59;20.20;99.90
48752;DHT22;34544;48.836;9.174;2023-08-30T15:17:24;20.50;99.90
48752;DHT22;34544;48.836;9.174;2023-08-30T15:19:50;20.70;99.90
48752;DHT22;34544;48.836;9.174;2023-08-30T15:22:16;20.90;99.90
48752;DHT22;34544;48.836;9.174;2023-08-30T15:24:43;20.90;99.90
48752;DHT22;34544;48.836;9.174;2023-08-30T15:27:09;21.00;99.90
48752;DHT22;34544;48.836;9.174;2023-08-30T15:29:34;21.20;99.90
48752;DHT22;34544;48.836;9.174;2023-08-30T15:32:00;21.40;99.90
48752;DHT22;34544;48.836;9.174;2023-08-30T15:34:26;21.60;99.90
48752;DHT22;34544;48.836;9.174;2023-08-30T15:36:51;21.60;99.90
48752;DHT22;34544;48.836;9.174;2023-08-30T15:39:17;21.40;99.90
48752;DHT22;34544;48.836;9.174;2023-08-30T15:41:44;21.40;99.90